Bellville, TX (77418)

7:12 AM CDT on July 06, 2015 (GMT -0500)
Piney Creek | | Change Station
CLOSE
Current Station
Personal Weather Station
Location: Bellville, TX
Elevation: 330 ft
Nearby Weather Stations

Elev 330 ft 30.01 °N, 96.28 °W | Updated 2 minutes ago

Mostly Cloudy
Mostly Cloudy
77.7 °F
Feels Like 80 °F
N
0.0
Wind Variable Wind from East
Gusts 0.0 mph

Today
High -- | Low -- °F
--% Chance of Precip.
Yesterday
High -- | Low -- °F
Precip. -- in
6:29 AM 8:29 PM
Waning Gibbous, 76% visible
Pressure 30.05 in
Visibility 5.0 miles
Clouds Overcast 800 ft
Heat Index 80 °F
Dew Point 76 °F
Humidity 94%
Rainfall 0.00 in
Snow Depth Not available.
UV 0.0 out of 12
Pollen 3.80 out of 12
Air Quality Not available.
Flu Activity Not available.
METAR K11R 061155Z AUTO 16004KT 5SM BR OVC008 27/26 A3005 RMK AO2 T02650255 10270 20257

More Conditions Fewer Conditions

Pressure 30.05 in
Visibility 5.0 miles
Clouds Overcast 800 ft
Heat Index 80 °F
Dew Point 76 °F
Humidity 94%
Rainfall 0.00 in
Snow Depth Not available.
UV 0.0 out of 12
Pollen 3.80 out of 12
Air Quality Not available.
Flu Activity Not available.
METAR K11R 061155Z AUTO 16004KT 5SM BR OVC008 27/26 A3005 RMK AO2 T02650255 10270 20257

More Conditions Fewer Conditions

10-Day Weather Forecast

×

Almanac

Astronomy

Jul. 06, 2015 Rise Set
Actual Time
Civil Twilight
Nautical Twilight
Astronomical Twilight
Moon
Length of Visible Light
Length of Day
Tomorrow will be .
, % of the Moon is Illuminated

Today's Extremes

State Highs State Lows

Community

WunderPhotos

Upload Photos

1,835,542 photos uploaded!

WunderBlogs® & News

Nearby

Air Quality

  Air Quality AQ Index Pollutant
Not available.

Snow Depth

Station Depth Elevation

Earthquake Activity

City Distance Mag. Time & Date
Minimum magnitude displayed is 2.5.

Coastal Water Temperatures

Place Temperature

Stations

Nearby Weather Stations

Station Location Temp. Windchill Dew Point Humidity Wind Precip. Elev Updated Type